createdAt,value
2022-09-03T00:01:08.103Z,15.66
2022-09-03T00:03:40.633Z,15.63
2022-09-03T00:06:17.586Z,15.57
2022-09-03T00:08:49.812Z,15.62
2022-09-03T00:11:22.107Z,15.55
2022-09-03T00:13:55.992Z,15.55
2022-09-03T00:16:27.938Z,15.52
2022-09-03T00:19:01.250Z,15.54
2022-09-03T00:21:39.311Z,15.56
2022-09-03T00:24:14.488Z,15.57
2022-09-03T00:26:48.989Z,15.57
2022-09-03T00:29:21.224Z,15.58
2022-09-03T00:31:51.820Z,15.52
2022-09-03T00:34:26.952Z,15.48
2022-09-03T00:36:56.473Z,15.44
2022-09-03T00:39:26.923Z,15.44
2022-09-03T00:42:12.455Z,15.34
2022-09-03T00:44:55.272Z,15.32
2022-09-03T00:47:31.362Z,15.34
2022-09-03T00:50:09.480Z,15.38
2022-09-03T00:52:49.976Z,15.40
2022-09-03T00:55:28.553Z,15.44
2022-09-03T00:58:13.375Z,15.55
2022-09-03T01:00:43.952Z,15.54
2022-09-03T01:03:18.064Z,15.52
2022-09-03T01:06:05.234Z,15.44
2022-09-03T01:08:51.120Z,15.39
2022-09-03T01:11:27.907Z,15.39
2022-09-03T01:14:06.452Z,15.32
2022-09-03T01:16:45.599Z,15.32
2022-09-03T01:19:34.439Z,15.29
2022-09-03T01:22:21.901Z,15.22
2022-09-03T01:25:17.695Z,15.24
2022-09-03T01:27:56.020Z,15.15
2022-09-03T01:30:26.610Z,15.08
2022-09-03T01:33:06.635Z,15.06
2022-09-03T01:35:39.773Z,15.03
2022-09-03T01:38:19.520Z,14.93
2022-09-03T01:41:19.169Z,14.88
2022-09-03T01:43:55.875Z,14.86
2022-09-03T01:46:30.859Z,14.91
2022-09-03T01:49:07.267Z,14.96
2022-09-03T01:51:35.481Z,14.99
2022-09-03T01:54:39.580Z,15.03
2022-09-03T01:57:37.027Z,15.06
2022-09-03T02:00:09.484Z,15.08
2022-09-03T02:02:41.113Z,15.10
2022-09-03T02:05:12.308Z,15.10
2022-09-03T02:07:42.766Z,15.12
2022-09-03T02:10:15.212Z,15.12
2022-09-03T02:12:47.823Z,15.17
2022-09-03T02:15:19.700Z,15.12
2022-09-03T02:17:50.883Z,15.16
2022-09-03T02:20:23.170Z,15.18
2022-09-03T02:22:52.242Z,15.15
2022-09-03T02:25:20.310Z,15.14
2022-09-03T02:27:50.595Z,15.15
2022-09-03T02:30:18.931Z,15.17
2022-09-03T02:32:48.626Z,15.24
2022-09-03T02:35:16.764Z,15.18
2022-09-03T02:37:44.840Z,15.08
2022-09-03T02:40:12.808Z,14.98
2022-09-03T02:42:40.784Z,15.00
2022-09-03T02:45:17.615Z,14.96
2022-09-03T02:47:48.804Z,14.98
2022-09-03T02:50:18.211Z,15.01
2022-09-03T02:52:46.195Z,15.00
2022-09-03T02:55:14.824Z,14.94
2022-09-03T02:57:43.233Z,14.91
2022-09-03T03:00:11.984Z,14.82
2022-09-03T03:02:39.990Z,14.84
2022-09-03T03:05:10.209Z,14.78
2022-09-03T03:07:42.123Z,14.76
2022-09-03T03:10:11.026Z,14.74
2022-09-03T03:12:39.453Z,14.76
2022-09-03T03:15:08.563Z,14.75
2022-09-03T03:17:36.560Z,14.76
2022-09-03T03:20:05.405Z,14.81
2022-09-03T03:22:33.443Z,14.81
2022-09-03T03:25:03.141Z,14.93
2022-09-03T03:27:31.108Z,14.97
2022-09-03T03:29:59.183Z,14.91
2022-09-03T03:32:28.083Z,14.92
2022-09-03T03:34:56.083Z,14.88
2022-09-03T03:37:24.057Z,14.87
2022-09-03T03:39:52.211Z,14.88
2022-09-03T03:42:21.676Z,14.86
2022-09-03T03:44:49.755Z,14.91
2022-09-03T03:47:18.345Z,14.92
2022-09-03T03:49:46.327Z,14.93
2022-09-03T03:52:14.340Z,14.92
2022-09-03T03:54:42.290Z,14.93
2022-09-03T03:57:10.261Z,14.92
2022-09-03T03:59:39.708Z,14.94
2022-09-03T04:02:07.773Z,14.89
2022-09-03T04:04:35.828Z,14.86
2022-09-03T04:07:03.923Z,14.86
2022-09-03T04:09:32.050Z,14.87
2022-09-03T04:12:00.036Z,14.84
2022-09-03T04:14:28.838Z,14.85
2022-09-03T04:16:58.226Z,14.83
2022-09-03T04:19:26.496Z,14.87
2022-09-03T04:21:54.515Z,14.93
2022-09-03T04:24:22.514Z,15.00
2022-09-03T04:26:51.674Z,15.02
2022-09-03T04:29:19.779Z,15.01
2022-09-03T04:32:01.641Z,15.01
2022-09-03T04:34:30.975Z,15.12
2022-09-03T04:36:59.539Z,15.05
2022-09-03T04:39:27.880Z,14.99
2022-09-03T04:41:55.924Z,15.01
2022-09-03T04:44:23.866Z,15.08
2022-09-03T04:46:53.291Z,15.11
2022-09-03T04:49:21.664Z,15.17
2022-09-03T04:51:51.032Z,15.20
2022-09-03T04:54:19.054Z,15.24
2022-09-03T04:56:47.026Z,15.22
2022-09-03T04:59:15.052Z,15.17
2022-09-03T05:01:45.374Z,15.18
2022-09-03T05:04:13.514Z,15.26
2022-09-03T05:06:43.475Z,15.19
2022-09-03T05:09:13.100Z,15.15
2022-09-03T05:11:41.448Z,15.11
2022-09-03T05:14:12.608Z,15.01
2022-09-03T05:16:41.044Z,15.01
2022-09-03T05:19:09.672Z,15.11
2022-09-03T05:21:39.050Z,15.11
2022-09-03T05:24:07.352Z,15.14
2022-09-03T05:26:40.076Z,15.11
2022-09-03T05:29:08.948Z,15.08
2022-09-03T05:31:39.313Z,15.01
2022-09-03T05:34:08.623Z,15.08
2022-09-03T05:36:38.631Z,15.04
2022-09-03T05:39:07.488Z,15.01
2022-09-03T05:41:36.949Z,14.94
2022-09-03T05:44:06.128Z,14.94
2022-09-03T05:46:37.021Z,14.98
2022-09-03T05:49:06.821Z,15.03
2022-09-03T05:51:35.934Z,15.06
2022-09-03T05:54:04.256Z,15.08
2022-09-03T05:56:35.786Z,15.18
2022-09-03T05:59:09.238Z,15.24
2022-09-03T06:01:38.940Z,15.27
2022-09-03T06:04:08.961Z,15.39
2022-09-03T06:06:39.297Z,15.31
2022-09-03T06:09:09.329Z,15.38
2022-09-03T06:11:38.747Z,15.47
2022-09-03T06:14:09.611Z,15.46
2022-09-03T06:16:39.845Z,15.43
2022-09-03T06:19:10.922Z,15.39
2022-09-03T06:21:41.421Z,15.35
2022-09-03T06:24:10.669Z,15.40
2022-09-03T06:26:43.040Z,15.68
2022-09-03T06:29:13.984Z,15.82
2022-09-03T06:31:42.446Z,16.05
2022-09-03T06:34:10.636Z,16.22
2022-09-03T06:36:41.461Z,16.36
2022-09-03T06:39:09.734Z,16.31
2022-09-03T06:41:38.061Z,16.19
2022-09-03T06:44:12.145Z,16.16
2022-09-03T06:46:43.512Z,16.24
2022-09-03T06:49:12.740Z,16.28
2022-09-03T06:51:43.269Z,16.32
2022-09-03T06:54:12.951Z,16.51
2022-09-03T06:56:42.183Z,16.56
2022-09-03T06:59:14.382Z,16.60
2022-09-03T07:01:46.295Z,16.59
2022-09-03T07:04:19.340Z,16.71
2022-09-03T07:06:49.193Z,16.77
2022-09-03T07:09:19.187Z,16.83
2022-09-03T07:11:48.899Z,16.87
2022-09-03T07:14:18.510Z,16.88
2022-09-03T07:16:49.253Z,16.73
2022-09-03T07:19:18.184Z,16.65
2022-09-03T07:21:50.142Z,16.67
2022-09-03T07:24:21.964Z,16.55
2022-09-03T07:26:50.290Z,16.51
2022-09-03T07:29:21.917Z,16.57
2022-09-03T07:31:53.283Z,16.57
2022-09-03T07:34:25.328Z,16.69
2022-09-03T07:36:54.110Z,16.88
2022-09-03T07:39:22.466Z,17.02
2022-09-03T07:41:50.943Z,17.19
2022-09-03T07:44:20.679Z,17.42
2022-09-03T07:46:51.373Z,17.30
2022-09-03T07:49:22.605Z,17.29
2022-09-03T07:51:54.327Z,17.17
2022-09-03T07:54:24.374Z,17.16
2022-09-03T07:56:52.990Z,17.48
2022-09-03T07:59:23.151Z,17.57
2022-09-03T08:01:53.125Z,17.72
2022-09-03T08:04:23.142Z,17.51
2022-09-03T08:06:55.746Z,17.46
2022-09-03T08:09:24.129Z,17.35
2022-09-03T08:11:52.189Z,17.52
2022-09-03T08:14:20.413Z,17.74
2022-09-03T08:16:51.141Z,17.95
2022-09-03T08:19:19.804Z,17.80
2022-09-03T08:21:49.389Z,17.86
2022-09-03T08:24:21.076Z,17.93
2022-09-03T08:26:52.132Z,18.15
2022-09-03T08:29:22.128Z,18.19
2022-09-03T08:31:50.541Z,18.48
2022-09-03T08:34:18.892Z,18.49
2022-09-03T08:36:48.928Z,18.55
2022-09-03T08:39:17.709Z,18.39
2022-09-03T08:42:14.908Z,18.67
2022-09-03T08:44:48.182Z,18.78
2022-09-03T08:47:23.076Z,18.72
2022-09-03T08:49:55.844Z,18.55
2022-09-03T08:52:32.569Z,18.51
2022-09-03T08:55:09.600Z,18.69
2022-09-03T08:57:44.917Z,18.87
2022-09-03T09:00:14.081Z,18.89
2022-09-03T09:03:09.205Z,18.80
2022-09-03T09:05:48.382Z,18.91
2022-09-03T09:08:25.847Z,19.01
2022-09-03T09:11:06.143Z,19.02
2022-09-03T09:13:44.136Z,19.41
2022-09-03T09:16:20.402Z,19.73
2022-09-03T09:19:04.491Z,20.01
2022-09-03T09:21:38.386Z,19.72
2022-09-03T09:24:14.328Z,19.62
2022-09-03T09:26:43.411Z,19.53
2022-09-03T09:29:14.235Z,19.59
2022-09-03T09:31:45.247Z,19.93
2022-09-03T09:34:14.057Z,20.22
2022-09-03T09:36:49.894Z,20.31
2022-09-03T09:39:20.678Z,20.46
2022-09-03T09:41:59.191Z,20.37
2022-09-03T09:44:28.487Z,20.33
2022-09-03T09:47:08.986Z,20.41
2022-09-03T09:49:39.445Z,20.67
2022-09-03T09:52:12.082Z,20.90
2022-09-03T09:54:43.524Z,20.81
2022-09-03T09:57:18.776Z,20.90
2022-09-03T09:59:48.129Z,20.96
2022-09-03T10:02:27.973Z,20.99
2022-09-03T10:05:00.105Z,20.86
2022-09-03T10:07:31.880Z,20.43
2022-09-03T10:10:18.693Z,20.37
2022-09-03T10:12:52.343Z,20.61
2022-09-03T10:15:28.361Z,20.68
2022-09-03T10:18:05.061Z,21.08
2022-09-03T10:20:40.800Z,21.36
2022-09-03T10:23:19.483Z,21.17
2022-09-03T10:26:07.476Z,21.67
2022-09-03T10:28:41.489Z,22.07
2022-09-03T10:31:36.809Z,22.83
2022-09-03T10:34:15.925Z,23.39
2022-09-03T10:36:55.046Z,23.07
2022-09-03T10:39:28.373Z,23.07
2022-09-03T10:42:11.530Z,23.37
2022-09-03T10:44:56.578Z,23.40
2022-09-03T10:47:45.546Z,23.81
2022-09-03T10:50:17.509Z,23.97
2022-09-03T10:53:07.059Z,23.82
2022-09-03T10:55:47.868Z,23.77
2022-09-03T10:58:33.492Z,24.11
2022-09-03T11:01:10.932Z,24.65
2022-09-03T11:03:49.197Z,24.84
2022-09-03T11:06:22.717Z,24.64
2022-09-03T11:09:02.102Z,24.87
2022-09-03T11:11:38.375Z,25.12
2022-09-03T11:14:10.497Z,25.37
2022-09-03T11:16:44.866Z,25.21
2022-09-03T11:19:16.481Z,25.61
2022-09-03T11:21:45.586Z,25.29
2022-09-03T11:24:16.689Z,25.44
2022-09-03T11:26:48.449Z,25.80
2022-09-03T11:29:23.953Z,26.06
2022-09-03T11:31:59.064Z,26.24
2022-09-03T11:34:33.312Z,26.75
2022-09-03T11:37:20.944Z,26.42
2022-09-03T11:39:57.928Z,26.28
2022-09-03T11:42:36.976Z,26.22
2022-09-03T11:45:25.781Z,26.37
2022-09-03T11:47:55.115Z,26.56
2022-09-03T11:50:26.127Z,26.84
2022-09-03T11:52:57.006Z,27.13
2022-09-03T11:55:38.250Z,27.38
2022-09-03T11:58:22.162Z,26.83
2022-09-03T12:00:55.193Z,26.82
2022-09-03T12:03:28.655Z,25.95
2022-09-03T12:06:23.910Z,26.06
2022-09-03T12:09:13.907Z,26.35
2022-09-03T12:11:57.363Z,27.05
2022-09-03T12:14:34.721Z,27.11
2022-09-03T12:17:19.453Z,27.06
2022-09-03T12:19:53.745Z,27.15
2022-09-03T12:22:23.763Z,27.06
2022-09-03T12:24:52.318Z,26.92
2022-09-03T12:27:24.934Z,26.58
2022-09-03T12:30:00.500Z,26.66
2022-09-03T12:32:32.820Z,25.82
2022-09-03T12:35:13.272Z,26.25
2022-09-03T12:40:33.260Z,26.42
2022-09-03T12:46:10.097Z,27.10
2022-09-03T12:48:43.572Z,26.93
2022-09-03T12:54:01.311Z,26.71
2022-09-03T12:56:32.321Z,26.31
2022-09-03T12:59:06.053Z,25.84
2022-09-03T13:01:38.108Z,26.01
2022-09-03T13:04:11.238Z,26.14
2022-09-03T13:06:51.047Z,26.65
2022-09-03T13:09:24.435Z,27.07
2022-09-03T13:11:55.676Z,27.36
2022-09-03T13:14:24.269Z,26.34
2022-09-03T13:17:09.112Z,25.96
2022-09-03T13:19:59.767Z,26.57
2022-09-03T13:22:41.026Z,26.97
2022-09-03T13:25:21.964Z,26.65
2022-09-03T13:28:02.633Z,25.74
2022-09-03T13:30:35.456Z,25.33
2022-09-03T13:33:10.558Z,25.48
2022-09-03T13:35:48.848Z,25.38
2022-09-03T13:38:26.934Z,25.25
2022-09-03T13:40:59.763Z,25.38
2022-09-03T13:43:35.076Z,25.27
2022-09-03T13:46:07.694Z,25.10
2022-09-03T13:48:57.521Z,25.56
2022-09-03T13:51:31.017Z,26.08
2022-09-03T13:54:22.344Z,26.98
2022-09-03T13:57:02.608Z,27.50
2022-09-03T13:59:35.891Z,26.72
2022-09-03T14:02:14.414Z,26.44
2022-09-03T14:04:56.405Z,25.66
2022-09-03T14:07:35.504Z,25.51
2022-09-03T14:10:11.763Z,25.16
2022-09-03T14:12:46.965Z,24.90
2022-09-03T14:15:22.005Z,24.42
2022-09-03T14:17:58.167Z,24.51
2022-09-03T14:20:30.424Z,25.03
2022-09-03T14:23:06.758Z,25.61
2022-09-03T14:25:35.226Z,26.00
2022-09-03T14:28:16.966Z,26.70
2022-09-03T14:30:55.665Z,26.30
2022-09-03T14:33:35.383Z,26.56
2022-09-03T14:36:20.414Z,27.49
2022-09-03T14:39:09.472Z,27.71
2022-09-03T14:42:14.514Z,28.12
2022-09-03T14:45:21.588Z,28.27
2022-09-03T14:48:17.867Z,27.88
2022-09-03T14:51:11.457Z,27.81
2022-09-03T14:54:08.832Z,27.27
2022-09-03T14:56:46.940Z,26.65
2022-09-03T14:59:50.010Z,26.89
2022-09-03T15:02:48.418Z,26.34
2022-09-03T15:05:30.744Z,25.58
2022-09-03T15:08:07.496Z,26.18
2022-09-03T15:10:44.261Z,26.31
2022-09-03T15:13:18.911Z,26.70
2022-09-03T15:16:04.195Z,26.60
2022-09-03T15:18:43.846Z,27.14
2022-09-03T15:21:27.439Z,27.02
2022-09-03T15:24:05.114Z,27.06
2022-09-03T15:27:05.406Z,27.07
2022-09-03T15:29:49.764Z,26.92
2022-09-03T15:32:33.345Z,27.38
2022-09-03T15:35:07.626Z,27.62
2022-09-03T15:37:43.767Z,27.23
2022-09-03T15:40:26.938Z,27.30
2022-09-03T15:43:02.014Z,26.73
2022-09-03T15:45:37.115Z,26.88
2022-09-03T15:48:15.544Z,26.63
2022-09-03T15:50:54.680Z,26.62
2022-09-03T15:53:34.282Z,26.35
2022-09-03T15:56:16.312Z,26.29
2022-09-03T15:58:53.001Z,26.16
2022-09-03T16:01:32.433Z,26.24
2022-09-03T16:04:09.875Z,26.41
2022-09-03T16:06:49.529Z,25.98
2022-09-03T16:09:31.460Z,25.65
2022-09-03T16:12:11.876Z,25.23
2022-09-03T16:14:47.687Z,24.76
2022-09-03T16:17:27.926Z,24.32
2022-09-03T16:20:02.489Z,23.90
2022-09-03T16:22:32.078Z,23.55
2022-09-03T16:25:05.219Z,23.23
2022-09-03T16:27:37.745Z,22.99
2022-09-03T16:30:12.645Z,22.74
2022-09-03T16:33:03.147Z,22.56
2022-09-03T16:35:43.049Z,22.47
2022-09-03T16:38:40.091Z,22.34
2022-09-03T16:41:21.203Z,22.10
2022-09-03T16:44:01.651Z,21.99
2022-09-03T16:46:41.620Z,21.73
2022-09-03T16:49:28.009Z,21.66
2022-09-03T16:52:05.997Z,21.65
2022-09-03T16:54:57.090Z,21.71
2022-09-03T16:57:39.652Z,21.74
2022-09-03T17:00:13.162Z,21.69
2022-09-03T17:03:12.292Z,21.58
2022-09-03T17:06:06.144Z,21.53
2022-09-03T17:08:45.427Z,21.45
2022-09-03T17:11:27.315Z,21.22
2022-09-03T17:14:22.609Z,21.17
2022-09-03T17:16:58.219Z,21.16
2022-09-03T17:19:36.970Z,21.06
2022-09-03T17:22:23.885Z,21.08
2022-09-03T17:24:54.907Z,21.11
2022-09-03T17:27:46.516Z,21.09
2022-09-03T17:30:22.733Z,21.06
2022-09-03T17:33:35.416Z,21.09
2022-09-03T17:36:14.168Z,20.99
2022-09-03T17:39:29.814Z,20.92
2022-09-03T17:42:03.152Z,20.92
2022-09-03T17:44:47.557Z,20.98
2022-09-03T17:47:35.689Z,20.90
2022-09-03T17:50:14.250Z,20.88
2022-09-03T17:52:49.644Z,20.71
2022-09-03T17:55:25.753Z,20.67
2022-09-03T17:57:59.126Z,20.54
2022-09-03T18:00:30.817Z,20.48
2022-09-03T18:03:06.908Z,20.36
2022-09-03T18:05:45.097Z,20.32
2022-09-03T18:08:19.952Z,20.23
2022-09-03T18:11:02.259Z,20.07
2022-09-03T18:13:44.661Z,19.91
2022-09-03T18:16:20.187Z,19.79
2022-09-03T18:18:52.058Z,19.71
2022-09-03T18:21:41.601Z,19.53
2022-09-03T18:24:46.213Z,19.51
2022-09-03T18:27:46.089Z,19.40
2022-09-03T18:30:34.078Z,19.20
2022-09-03T18:33:19.819Z,19.14
2022-09-03T18:36:05.719Z,18.99
2022-09-03T18:38:53.628Z,18.99
2022-09-03T18:42:03.452Z,18.97
2022-09-03T18:45:20.455Z,18.90
2022-09-03T18:48:20.682Z,18.92
2022-09-03T18:51:14.843Z,18.86
2022-09-03T18:54:10.010Z,18.77
2022-09-03T18:57:03.784Z,18.79
2022-09-03T19:00:14.277Z,18.76
2022-09-03T19:03:11.397Z,18.73
2022-09-03T19:06:11.557Z,18.53
2022-09-03T19:09:04.951Z,18.57
2022-09-03T19:11:57.083Z,18.57
2022-09-03T19:14:52.576Z,18.56
2022-09-03T19:17:44.852Z,18.58
2022-09-03T19:20:40.627Z,18.66
2022-09-03T19:23:26.043Z,18.66
2022-09-03T19:26:18.153Z,18.55
2022-09-03T19:29:08.789Z,18.56
2022-09-03T19:32:02.760Z,18.49
2022-09-03T19:35:14.369Z,18.42
2022-09-03T19:38:10.124Z,18.40
2022-09-03T19:41:15.868Z,18.44
2022-09-03T19:44:15.351Z,18.35
2022-09-03T19:47:08.037Z,18.38
2022-09-03T19:50:09.894Z,18.40
2022-09-03T19:53:03.661Z,18.48
2022-09-03T19:55:53.921Z,18.52
2022-09-03T19:58:44.055Z,18.52
2022-09-03T20:01:31.511Z,18.39
2022-09-03T20:04:25.703Z,18.27
2022-09-03T20:07:11.525Z,18.27
2022-09-03T20:10:00.854Z,18.22
2022-09-03T20:12:35.319Z,18.14
2022-09-03T20:15:05.078Z,18.08
2022-09-03T20:17:42.956Z,18.00
2022-09-03T20:20:18.718Z,18.01
2022-09-03T20:23:01.320Z,17.88
2022-09-03T20:25:46.175Z,17.87
2022-09-03T20:28:27.938Z,17.82
2022-09-03T20:31:02.794Z,17.86
2022-09-03T20:33:42.134Z,17.80
2022-09-03T20:36:22.518Z,17.72
2022-09-03T20:39:11.334Z,17.69
2022-09-03T20:41:50.509Z,17.77
2022-09-03T20:44:50.356Z,17.72
2022-09-03T20:47:47.139Z,17.67
2022-09-03T20:50:26.305Z,17.55
2022-09-03T20:53:07.817Z,17.51
2022-09-03T20:55:43.176Z,17.36
2022-09-03T20:58:17.912Z,17.31
2022-09-03T21:00:52.556Z,17.34
2022-09-03T21:03:26.815Z,17.33
2022-09-03T21:06:04.131Z,17.30
2022-09-03T21:09:04.677Z,17.36
2022-09-03T21:11:40.596Z,17.30
2022-09-03T21:14:20.658Z,17.31
2022-09-03T21:17:00.250Z,17.40
2022-09-03T21:19:41.322Z,17.32
2022-09-03T21:22:18.483Z,17.47
2022-09-03T21:24:53.848Z,17.49
2022-09-03T21:27:25.927Z,17.48
2022-09-03T21:30:01.032Z,17.40
2022-09-03T21:32:37.109Z,17.13
2022-09-03T21:35:12.366Z,17.12
2022-09-03T21:37:46.657Z,17.04
2022-09-03T21:40:24.290Z,17.05
2022-09-03T21:42:59.876Z,17.01
2022-09-03T21:45:35.790Z,16.99
2022-09-03T21:48:09.828Z,16.98
2022-09-03T21:50:48.641Z,16.89
2022-09-03T21:53:24.548Z,16.97
2022-09-03T21:56:21.736Z,17.02
2022-09-03T21:59:08.872Z,17.04
2022-09-03T22:01:48.065Z,17.06
2022-09-03T22:04:16.483Z,17.03
2022-09-03T22:06:51.843Z,17.01
2022-09-03T22:09:29.446Z,16.99
2022-09-03T22:12:08.003Z,16.95
2022-09-03T22:14:43.195Z,16.99
2022-09-03T22:17:16.839Z,16.77
2022-09-03T22:19:45.681Z,16.74
2022-09-03T22:22:19.320Z,16.58
2022-09-03T22:24:52.095Z,16.55
2022-09-03T22:27:30.743Z,16.55
2022-09-03T22:30:06.855Z,16.56
2022-09-03T22:32:51.751Z,16.54
2022-09-03T22:35:54.856Z,16.58
2022-09-03T22:38:47.180Z,16.60
2022-09-03T22:41:30.401Z,16.65
2022-09-03T22:44:09.545Z,16.58
2022-09-03T22:46:45.939Z,16.59
2022-09-03T22:49:32.109Z,16.60
2022-09-03T22:52:24.676Z,16.50
2022-09-03T22:55:10.231Z,16.40
2022-09-03T22:57:46.786Z,16.41
2022-09-03T23:00:17.745Z,16.32
2022-09-03T23:02:50.403Z,16.39
2022-09-03T23:05:33.792Z,16.37
2022-09-03T23:08:09.568Z,16.26
2022-09-03T23:10:53.897Z,16.20
2022-09-03T23:13:26.530Z,16.11
2022-09-03T23:16:02.285Z,16.11
2022-09-03T23:18:33.577Z,16.10
2022-09-03T23:21:07.848Z,16.07
2022-09-03T23:23:40.148Z,16.04
2022-09-03T23:26:17.384Z,16.08
2022-09-03T23:28:48.581Z,16.14
2022-09-03T23:31:24.535Z,16.10
2022-09-03T23:33:54.573Z,16.10
2022-09-03T23:36:58.025Z,15.99
2022-09-03T23:39:37.028Z,15.97
2022-09-03T23:42:16.947Z,15.92
2022-09-03T23:44:58.230Z,15.87
2022-09-03T23:47:38.817Z,15.92
2022-09-03T23:50:17.863Z,15.82
2022-09-03T23:52:58.777Z,15.82
2022-09-03T23:55:38.417Z,15.82
2022-09-03T23:58:11.454Z,15.85
